Yarmouth Port, MA

12:14 EDT le 30 Mars 2015 (GMT -0400)
Chatham Municipal | | Change Station
CLOSE
Current Station
Aéroport
Location: Chatham,
Altitude: 66 ft
Stations météo à proximité

Alt. 66 ft 41.69 °N, 69.99 °W | Updated 22 minutes ago

Pluie
Pluie
39 ° F
Paraît 32 ° F
N
12
Vent Variable Vent de Sud
Gusts 20 mph

Aujourd'hui
Haut(e) -- | Bas -- ° F
--% Risque de précip.
Hier
Haut(e) -- | Bas -- ° F
Precip. -- pouce
6:27 AM 7:03 PM
Lune gibbeuse croissante, 80% visible
Pression 29.89 pouce
Visibilité 10.0 Miles terrestres
Nuages Couvert 5500 ft
Refroidissement éolien 32 ° F
Point de rosée 30 ° F
Humidité 70%
Précipitations 0.00 pouce
Profondeur de la couche neigeuse Non disponible.
UV 2 sur 12
Pollen 2.90 sur 12
Qualité de l'air Non disponible.
Flu Activity Non disponible.
METAR KCQX 301552Z AUTO 19010G17KT 10SM OVC055 04/M01 A2988 RMK AO2 RAB28E37 SLP122 P0000 T00391011

More Conditions Fewer Conditions

Pression 29.89 pouce
Visibilité 10.0 Miles terrestres
Nuages Couvert 5500 ft
Refroidissement éolien 32 ° F
Point de rosée 30 ° F
Humidité 70%
Précipitations 0.00 pouce
Profondeur de la couche neigeuse Non disponible.
UV 2 sur 12
Pollen 2.90 sur 12
Qualité de l'air Non disponible.
Flu Activity Non disponible.
METAR KCQX 301552Z AUTO 19010G17KT 10SM OVC055 04/M01 A2988 RMK AO2 RAB28E37 SLP122 P0000 T00391011

More Conditions Fewer Conditions

10-Day Weather Forecast

Almanac

Astronomie

Mar. 30, 2015 Lever Coucher
Temps réel
Crépuscule civil
Crépuscule nautique
Crépuscule astronomique
Lune
Durée de lumière visible
Longueur du jour
Tomorrow will be .
, % of the Moon is Illuminated

Extrêmes aujourd'hui

State Highs State Lows

Community

WunderPhotos

Upload Photos

1,809,527 Photos téléchargées !

WunderBlogs® & News

Nearby

Qualité de l'air

  Qualité de l'air Indice de la qualité de l'air Polluant
Not available.

Épaisseur de neige

Station Depth Altitude

Activité sismique

Ville Distance Mag. Time & Date
Minimum magnitude displayed is 2.5.

Températures des eaux côtières

Lieu Température

Stations

Stations météo à proximité

Emplacement de la station Température Refroidissement éolien Point de rosée Humidité Vent Precip. Alt. Mise à jour Type